sensor_id;sensor_type;location;lat;lon;timestamp;P1;durP1;ratioP1;P2;durP2;ratioP2
64894;SDS011;51588;53.702;10.208;2023-03-11T00:01:16;3.63;;;3.00;;
64894;SDS011;51588;53.702;10.208;2023-03-11T00:03:44;2.97;;;2.67;;
64894;SDS011;51588;53.702;10.208;2023-03-11T00:06:11;3.33;;;2.47;;
64894;SDS011;51588;53.702;10.208;2023-03-11T00:08:37;3.10;;;2.80;;
64894;SDS011;51588;53.702;10.208;2023-03-11T00:11:05;2.93;;;2.57;;
64894;SDS011;51588;53.702;10.208;2023-03-11T00:13:31;3.30;;;2.67;;
64894;SDS011;51588;53.702;10.208;2023-03-11T00:15:59;3.07;;;2.77;;
64894;SDS011;51588;53.702;10.208;2023-03-11T00:18:25;4.83;;;2.40;;
64894;SDS011;51588;53.702;10.208;2023-03-11T00:20:55;3.33;;;2.77;;
64894;SDS011;51588;53.702;10.208;2023-03-11T00:23:22;5.30;;;2.60;;
64894;SDS011;51588;53.702;10.208;2023-03-11T00:25:49;4.63;;;2.50;;
64894;SDS011;51588;53.702;10.208;2023-03-11T00:28:16;10.40;;;2.53;;
64894;SDS011;51588;53.702;10.208;2023-03-11T00:30:43;3.53;;;2.60;;
64894;SDS011;51588;53.702;10.208;2023-03-11T00:33:10;2.93;;;2.57;;
64894;SDS011;51588;53.702;10.208;2023-03-11T00:35:37;2.57;;;2.20;;
64894;SDS011;51588;53.702;10.208;2023-03-11T00:38:05;3.93;;;2.80;;
64894;SDS011;51588;53.702;10.208;2023-03-11T00:40:32;3.40;;;2.47;;
64894;SDS011;51588;53.702;10.208;2023-03-11T00:43:02;2.73;;;2.53;;
64894;SDS011;51588;53.702;10.208;2023-03-11T00:45:29;3.23;;;2.37;;
64894;SDS011;51588;53.702;10.208;2023-03-11T00:47:55;5.83;;;2.50;;
64894;SDS011;51588;53.702;10.208;2023-03-11T00:50:22;2.80;;;2.50;;
64894;SDS011;51588;53.702;10.208;2023-03-11T00:52:49;4.00;;;2.77;;
64894;SDS011;51588;53.702;10.208;2023-03-11T00:55:22;2.83;;;2.30;;
64894;SDS011;51588;53.702;10.208;2023-03-11T00:57:50;2.63;;;2.40;;
64894;SDS011;51588;53.702;10.208;2023-03-11T01:00:17;3.87;;;2.67;;
64894;SDS011;51588;53.702;10.208;2023-03-11T01:02:44;2.90;;;2.30;;
64894;SDS011;51588;53.702;10.208;2023-03-11T01:05:13;3.00;;;2.43;;
64894;SDS011;51588;53.702;10.208;2023-03-11T01:07:40;2.60;;;2.40;;
64894;SDS011;51588;53.702;10.208;2023-03-11T01:10:14;2.87;;;2.60;;
64894;SDS011;51588;53.702;10.208;2023-03-11T01:12:42;3.10;;;2.60;;
64894;SDS011;51588;53.702;10.208;2023-03-11T01:15:14;2.57;;;2.30;;
64894;SDS011;51588;53.702;10.208;2023-03-11T01:17:42;2.83;;;2.53;;
64894;SDS011;51588;53.702;10.208;2023-03-11T01:20:11;2.70;;;2.30;;
64894;SDS011;51588;53.702;10.208;2023-03-11T01:22:38;4.17;;;2.53;;
64894;SDS011;51588;53.702;10.208;2023-03-11T01:25:11;2.53;;;2.33;;
64894;SDS011;51588;53.702;10.208;2023-03-11T01:27:38;3.10;;;2.17;;
64894;SDS011;51588;53.702;10.208;2023-03-11T01:30:07;3.20;;;2.70;;
64894;SDS011;51588;53.702;10.208;2023-03-11T01:32:33;2.80;;;2.50;;
64894;SDS011;51588;53.702;10.208;2023-03-11T01:35:00;2.83;;;2.50;;
64894;SDS011;51588;53.702;10.208;2023-03-11T01:37:26;3.00;;;2.37;;
64894;SDS011;51588;53.702;10.208;2023-03-11T01:39:52;3.00;;;2.70;;
64894;SDS011;51588;53.702;10.208;2023-03-11T01:42:19;2.53;;;2.33;;
64894;SDS011;51588;53.702;10.208;2023-03-11T01:44:45;2.50;;;2.20;;
64894;SDS011;51588;53.702;10.208;2023-03-11T01:50:01;2.50;;;2.30;;
64894;SDS011;51588;53.702;10.208;2023-03-11T01:52:31;2.70;;;2.50;;
64894;SDS011;51588;53.702;10.208;2023-03-11T01:55:00;2.90;;;2.70;;
64894;SDS011;51588;53.702;10.208;2023-03-11T01:57:30;2.70;;;2.33;;
64894;SDS011;51588;53.702;10.208;2023-03-11T01:59:57;3.17;;;2.60;;
64894;SDS011;51588;53.702;10.208;2023-03-11T02:02:25;2.50;;;2.30;;
64894;SDS011;51588;53.702;10.208;2023-03-11T02:04:53;2.70;;;2.50;;
64894;SDS011;51588;53.702;10.208;2023-03-11T02:07:21;2.63;;;2.43;;
64894;SDS011;51588;53.702;10.208;2023-03-11T02:09:50;3.13;;;2.53;;
64894;SDS011;51588;53.702;10.208;2023-03-11T02:12:17;2.23;;;2.03;;
64894;SDS011;51588;53.702;10.208;2023-03-11T02:14:44;2.50;;;2.30;;
64894;SDS011;51588;53.702;10.208;2023-03-11T02:17:11;2.63;;;2.40;;
64894;SDS011;51588;53.702;10.208;2023-03-11T02:19:45;3.43;;;2.30;;
64894;SDS011;51588;53.702;10.208;2023-03-11T02:22:22;3.10;;;2.13;;
64894;SDS011;51588;53.702;10.208;2023-03-11T02:24:50;2.30;;;2.10;;
64894;SDS011;51588;53.702;10.208;2023-03-11T02:27:21;2.43;;;2.23;;
64894;SDS011;51588;53.702;10.208;2023-03-11T02:29:48;2.50;;;2.30;;
64894;SDS011;51588;53.702;10.208;2023-03-11T02:32:15;3.43;;;2.50;;
64894;SDS011;51588;53.702;10.208;2023-03-11T02:34:47;2.47;;;2.27;;
64894;SDS011;51588;53.702;10.208;2023-03-11T02:37:17;2.87;;;2.50;;
64894;SDS011;51588;53.702;10.208;2023-03-11T02:39:44;2.73;;;2.03;;
64894;SDS011;51588;53.702;10.208;2023-03-11T02:42:11;3.07;;;2.77;;
64894;SDS011;51588;53.702;10.208;2023-03-11T02:44:43;3.03;;;2.30;;
64894;SDS011;51588;53.702;10.208;2023-03-11T02:47:10;2.93;;;2.30;;
64894;SDS011;51588;53.702;10.208;2023-03-11T02:49:37;2.40;;;2.20;;
64894;SDS011;51588;53.702;10.208;2023-03-11T02:52:04;2.30;;;2.10;;
64894;SDS011;51588;53.702;10.208;2023-03-11T02:54:30;3.53;;;2.47;;
64894;SDS011;51588;53.702;10.208;2023-03-11T02:56:57;2.97;;;2.53;;
64894;SDS011;51588;53.702;10.208;2023-03-11T02:59:24;2.20;;;1.90;;
64894;SDS011;51588;53.702;10.208;2023-03-11T03:01:52;2.80;;;2.20;;
64894;SDS011;51588;53.702;10.208;2023-03-11T03:04:18;2.27;;;2.07;;
64894;SDS011;51588;53.702;10.208;2023-03-11T03:06:45;2.80;;;2.20;;
64894;SDS011;51588;53.702;10.208;2023-03-11T03:09:11;2.50;;;2.30;;
64894;SDS011;51588;53.702;10.208;2023-03-11T03:11:38;2.43;;;2.23;;
64894;SDS011;51588;53.702;10.208;2023-03-11T03:14:04;2.30;;;2.10;;
64894;SDS011;51588;53.702;10.208;2023-03-11T03:16:33;2.53;;;2.33;;
64894;SDS011;51588;53.702;10.208;2023-03-11T03:19:00;2.90;;;2.50;;
64894;SDS011;51588;53.702;10.208;2023-03-11T03:21:27;2.37;;;2.17;;
64894;SDS011;51588;53.702;10.208;2023-03-11T03:24:02;2.70;;;2.50;;
64894;SDS011;51588;53.702;10.208;2023-03-11T03:26:31;2.33;;;2.10;;
64894;SDS011;51588;53.702;10.208;2023-03-11T03:28:57;2.47;;;2.27;;
64894;SDS011;51588;53.702;10.208;2023-03-11T03:31:23;2.63;;;2.20;;
64894;SDS011;51588;53.702;10.208;2023-03-11T03:33:50;2.40;;;2.20;;
64894;SDS011;51588;53.702;10.208;2023-03-11T03:36:18;2.40;;;2.20;;
64894;SDS011;51588;53.702;10.208;2023-03-11T03:38:47;3.70;;;3.00;;
64894;SDS011;51588;53.702;10.208;2023-03-11T03:41:16;2.67;;;2.30;;
64894;SDS011;51588;53.702;10.208;2023-03-11T03:43:43;2.90;;;2.00;;
64894;SDS011;51588;53.702;10.208;2023-03-11T03:46:09;2.43;;;2.23;;
64894;SDS011;51588;53.702;10.208;2023-03-11T03:48:36;3.03;;;2.37;;
64894;SDS011;51588;53.702;10.208;2023-03-11T03:51:02;2.30;;;2.10;;
64894;SDS011;51588;53.702;10.208;2023-03-11T03:53:31;2.23;;;2.00;;
64894;SDS011;51588;53.702;10.208;2023-03-11T03:56:00;2.30;;;2.10;;
64894;SDS011;51588;53.702;10.208;2023-03-11T03:58:30;2.23;;;2.13;;
64894;SDS011;51588;53.702;10.208;2023-03-11T04:00:56;2.30;;;2.10;;
64894;SDS011;51588;53.702;10.208;2023-03-11T04:03:23;2.13;;;1.93;;
64894;SDS011;51588;53.702;10.208;2023-03-11T04:05:49;2.20;;;2.00;;
64894;SDS011;51588;53.702;10.208;2023-03-11T04:08:19;2.90;;;2.27;;
64894;SDS011;51588;53.702;10.208;2023-03-11T04:10:56;2.60;;;2.10;;
64894;SDS011;51588;53.702;10.208;2023-03-11T04:13:22;2.30;;;2.10;;
64894;SDS011;51588;53.702;10.208;2023-03-11T04:15:49;2.13;;;1.90;;
64894;SDS011;51588;53.702;10.208;2023-03-11T04:18:15;2.90;;;2.50;;
64894;SDS011;51588;53.702;10.208;2023-03-11T04:20:42;2.87;;;2.20;;
64894;SDS011;51588;53.702;10.208;2023-03-11T04:23:08;2.30;;;2.10;;
64894;SDS011;51588;53.702;10.208;2023-03-11T04:25:42;1.77;;;1.67;;
64894;SDS011;51588;53.702;10.208;2023-03-11T04:28:13;2.30;;;2.10;;
64894;SDS011;51588;53.702;10.208;2023-03-11T04:30:39;1.93;;;1.73;;
64894;SDS011;51588;53.702;10.208;2023-03-11T04:33:06;2.30;;;2.00;;
64894;SDS011;51588;53.702;10.208;2023-03-11T04:35:32;2.20;;;2.00;;
64894;SDS011;51588;53.702;10.208;2023-03-11T04:37:59;2.63;;;2.37;;
64894;SDS011;51588;53.702;10.208;2023-03-11T04:40:27;2.30;;;2.10;;
64894;SDS011;51588;53.702;10.208;2023-03-11T04:42:56;2.30;;;2.10;;
64894;SDS011;51588;53.702;10.208;2023-03-11T04:45:23;2.60;;;2.10;;
64894;SDS011;51588;53.702;10.208;2023-03-11T04:47:50;2.23;;;2.03;;
64894;SDS011;51588;53.702;10.208;2023-03-11T04:50:17;3.23;;;2.40;;
64894;SDS011;51588;53.702;10.208;2023-03-11T04:52:43;2.40;;;2.20;;
64894;SDS011;51588;53.702;10.208;2023-03-11T04:55:10;2.13;;;1.90;;
64894;SDS011;51588;53.702;10.208;2023-03-11T04:57:38;2.10;;;1.90;;
64894;SDS011;51588;53.702;10.208;2023-03-11T05:00:04;2.20;;;2.10;;
64894;SDS011;51588;53.702;10.208;2023-03-11T05:02:35;2.63;;;1.97;;
64894;SDS011;51588;53.702;10.208;2023-03-11T05:05:01;2.40;;;2.20;;
64894;SDS011;51588;53.702;10.208;2023-03-11T05:07:28;2.10;;;1.90;;
64894;SDS011;51588;53.702;10.208;2023-03-11T05:09:56;2.00;;;1.80;;
64894;SDS011;51588;53.702;10.208;2023-03-11T05:12:23;2.07;;;1.87;;
64894;SDS011;51588;53.702;10.208;2023-03-11T05:14:49;1.90;;;1.80;;
64894;SDS011;51588;53.702;10.208;2023-03-11T05:17:19;1.97;;;1.77;;
64894;SDS011;51588;53.702;10.208;2023-03-11T05:19:47;2.00;;;1.90;;
64894;SDS011;51588;53.702;10.208;2023-03-11T05:22:13;2.60;;;2.30;;
64894;SDS011;51588;53.702;10.208;2023-03-11T05:24:40;2.10;;;1.90;;
64894;SDS011;51588;53.702;10.208;2023-03-11T05:27:06;2.20;;;2.00;;
64894;SDS011;51588;53.702;10.208;2023-03-11T05:29:35;1.70;;;1.60;;
64894;SDS011;51588;53.702;10.208;2023-03-11T05:32:05;1.97;;;1.77;;
64894;SDS011;51588;53.702;10.208;2023-03-11T05:34:31;1.90;;;1.70;;
64894;SDS011;51588;53.702;10.208;2023-03-11T05:37:02;2.40;;;2.20;;
64894;SDS011;51588;53.702;10.208;2023-03-11T05:39:28;2.93;;;1.80;;
64894;SDS011;51588;53.702;10.208;2023-03-11T05:41:54;2.17;;;1.97;;
64894;SDS011;51588;53.702;10.208;2023-03-11T05:44:21;1.90;;;1.80;;
64894;SDS011;51588;53.702;10.208;2023-03-11T05:46:47;2.17;;;1.80;;
64894;SDS011;51588;53.702;10.208;2023-03-11T05:49:14;2.07;;;1.87;;
64894;SDS011;51588;53.702;10.208;2023-03-11T05:51:43;2.17;;;1.83;;
64894;SDS011;51588;53.702;10.208;2023-03-11T05:54:11;2.03;;;1.67;;
64894;SDS011;51588;53.702;10.208;2023-03-11T05:56:39;2.17;;;1.97;;
64894;SDS011;51588;53.702;10.208;2023-03-11T05:59:06;2.43;;;2.00;;
64894;SDS011;51588;53.702;10.208;2023-03-11T06:01:34;2.13;;;1.93;;
64894;SDS011;51588;53.702;10.208;2023-03-11T06:04:01;2.20;;;1.80;;
64894;SDS011;51588;53.702;10.208;2023-03-11T06:06:28;1.90;;;1.80;;
64894;SDS011;51588;53.702;10.208;2023-03-11T06:09:03;2.30;;;2.10;;
64894;SDS011;51588;53.702;10.208;2023-03-11T06:11:36;1.90;;;1.70;;
64894;SDS011;51588;53.702;10.208;2023-03-11T06:14:02;2.13;;;1.93;;
64894;SDS011;51588;53.702;10.208;2023-03-11T06:16:29;1.80;;;1.67;;
64894;SDS011;51588;53.702;10.208;2023-03-11T06:18:58;1.80;;;1.70;;
64894;SDS011;51588;53.702;10.208;2023-03-11T06:21:25;2.70;;;1.80;;
64894;SDS011;51588;53.702;10.208;2023-03-11T06:23:54;1.80;;;1.70;;
64894;SDS011;51588;53.702;10.208;2023-03-11T06:26:21;1.90;;;1.70;;
64894;SDS011;51588;53.702;10.208;2023-03-11T06:28:49;2.27;;;2.07;;
64894;SDS011;51588;53.702;10.208;2023-03-11T06:31:17;2.20;;;2.00;;
64894;SDS011;51588;53.702;10.208;2023-03-11T06:33:44;2.50;;;2.07;;
64894;SDS011;51588;53.702;10.208;2023-03-11T06:36:11;1.73;;;1.63;;
64894;SDS011;51588;53.702;10.208;2023-03-11T06:38:38;3.00;;;2.07;;
64894;SDS011;51588;53.702;10.208;2023-03-11T06:41:05;1.93;;;1.73;;
64894;SDS011;51588;53.702;10.208;2023-03-11T06:43:32;2.07;;;1.70;;
64894;SDS011;51588;53.702;10.208;2023-03-11T06:46:00;1.63;;;1.53;;
64894;SDS011;51588;53.702;10.208;2023-03-11T06:48:26;3.23;;;1.57;;
64894;SDS011;51588;53.702;10.208;2023-03-11T06:50:53;1.70;;;1.60;;
64894;SDS011;51588;53.702;10.208;2023-03-11T06:53:20;1.80;;;1.70;;
64894;SDS011;51588;53.702;10.208;2023-03-11T06:55:56;2.43;;;2.03;;
64894;SDS011;51588;53.702;10.208;2023-03-11T06:58:22;1.70;;;1.60;;
64894;SDS011;51588;53.702;10.208;2023-03-11T07:00:59;1.67;;;1.57;;
64894;SDS011;51588;53.702;10.208;2023-03-11T07:03:30;1.87;;;1.70;;
64894;SDS011;51588;53.702;10.208;2023-03-11T07:05:59;1.70;;;1.50;;
64894;SDS011;51588;53.702;10.208;2023-03-11T07:08:26;2.07;;;1.77;;
64894;SDS011;51588;53.702;10.208;2023-03-11T07:11:02;1.90;;;1.77;;
64894;SDS011;51588;53.702;10.208;2023-03-11T07:13:29;1.70;;;1.60;;
64894;SDS011;51588;53.702;10.208;2023-03-11T07:16:00;1.60;;;1.50;;
64894;SDS011;51588;53.702;10.208;2023-03-11T07:18:36;2.07;;;1.60;;
64894;SDS011;51588;53.702;10.208;2023-03-11T07:21:03;2.30;;;1.80;;
64894;SDS011;51588;53.702;10.208;2023-03-11T07:23:33;2.33;;;1.70;;
64894;SDS011;51588;53.702;10.208;2023-03-11T07:25:59;2.00;;;1.80;;
64894;SDS011;51588;53.702;10.208;2023-03-11T07:28:26;3.40;;;1.90;;
64894;SDS011;51588;53.702;10.208;2023-03-11T07:30:55;2.40;;;1.57;;
64894;SDS011;51588;53.702;10.208;2023-03-11T07:33:23;2.37;;;1.83;;
64894;SDS011;51588;53.702;10.208;2023-03-11T07:35:50;2.40;;;1.80;;
64894;SDS011;51588;53.702;10.208;2023-03-11T07:38:16;1.60;;;1.50;;
64894;SDS011;51588;53.702;10.208;2023-03-11T07:40:43;1.93;;;1.80;;
64894;SDS011;51588;53.702;10.208;2023-03-11T07:43:13;1.70;;;1.47;;
64894;SDS011;51588;53.702;10.208;2023-03-11T07:45:39;2.10;;;1.90;;
64894;SDS011;51588;53.702;10.208;2023-03-11T07:48:06;1.90;;;1.70;;
64894;SDS011;51588;53.702;10.208;2023-03-11T07:50:33;2.00;;;1.90;;
64894;SDS011;51588;53.702;10.208;2023-03-11T07:53:06;1.77;;;1.63;;
64894;SDS011;51588;53.702;10.208;2023-03-11T07:55:32;2.30;;;2.10;;
64894;SDS011;51588;53.702;10.208;2023-03-11T07:57:58;3.40;;;1.40;;
64894;SDS011;51588;53.702;10.208;2023-03-11T08:00:25;3.20;;;1.80;;
64894;SDS011;51588;53.702;10.208;2023-03-11T08:02:51;3.73;;;1.87;;
64894;SDS011;51588;53.702;10.208;2023-03-11T08:05:18;1.83;;;1.60;;
64894;SDS011;51588;53.702;10.208;2023-03-11T08:07:46;2.43;;;1.60;;
64894;SDS011;51588;53.702;10.208;2023-03-11T08:10:15;2.93;;;1.60;;
64894;SDS011;51588;53.702;10.208;2023-03-11T08:12:42;1.80;;;1.70;;
64894;SDS011;51588;53.702;10.208;2023-03-11T08:15:09;1.67;;;1.57;;
64894;SDS011;51588;53.702;10.208;2023-03-11T08:17:40;2.60;;;1.73;;
64894;SDS011;51588;53.702;10.208;2023-03-11T08:20:16;3.30;;;1.70;;
64894;SDS011;51588;53.702;10.208;2023-03-11T08:22:47;1.90;;;1.70;;
64894;SDS011;51588;53.702;10.208;2023-03-11T08:25:13;2.70;;;1.73;;
64894;SDS011;51588;53.702;10.208;2023-03-11T08:27:42;2.70;;;1.67;;
64894;SDS011;51588;53.702;10.208;2023-03-11T08:30:09;3.93;;;2.13;;
64894;SDS011;51588;53.702;10.208;2023-03-11T08:32:36;6.53;;;2.10;;
64894;SDS011;51588;53.702;10.208;2023-03-11T08:35:02;7.40;;;2.20;;
64894;SDS011;51588;53.702;10.208;2023-03-11T08:37:29;5.07;;;2.17;;
64894;SDS011;51588;53.702;10.208;2023-03-11T08:39:57;15.90;;;3.63;;
64894;SDS011;51588;53.702;10.208;2023-03-11T08:42:23;20.33;;;4.90;;
64894;SDS011;51588;53.702;10.208;2023-03-11T08:44:49;21.97;;;4.70;;
64894;SDS011;51588;53.702;10.208;2023-03-11T08:47:16;15.20;;;4.17;;
64894;SDS011;51588;53.702;10.208;2023-03-11T08:49:42;12.50;;;4.13;;
64894;SDS011;51588;53.702;10.208;2023-03-11T08:52:08;10.70;;;3.87;;
64894;SDS011;51588;53.702;10.208;2023-03-11T08:54:35;10.30;;;3.50;;
64894;SDS011;51588;53.702;10.208;2023-03-11T08:57:06;13.63;;;3.70;;
64894;SDS011;51588;53.702;10.208;2023-03-11T08:59:32;13.83;;;4.20;;
64894;SDS011;51588;53.702;10.208;2023-03-11T09:01:59;24.03;;;4.60;;
64894;SDS011;51588;53.702;10.208;2023-03-11T09:04:26;16.23;;;4.30;;
64894;SDS011;51588;53.702;10.208;2023-03-11T09:06:52;14.70;;;4.20;;
64894;SDS011;51588;53.702;10.208;2023-03-11T09:09:18;15.90;;;3.87;;
64894;SDS011;51588;53.702;10.208;2023-03-11T09:11:45;15.40;;;4.10;;
64894;SDS011;51588;53.702;10.208;2023-03-11T09:14:12;15.87;;;3.73;;
64894;SDS011;51588;53.702;10.208;2023-03-11T09:16:42;8.10;;;3.30;;
64894;SDS011;51588;53.702;10.208;2023-03-11T09:19:08;13.23;;;3.57;;
64894;SDS011;51588;53.702;10.208;2023-03-11T09:21:35;10.80;;;3.40;;
64894;SDS011;51588;53.702;10.208;2023-03-11T09:24:13;9.13;;;3.53;;
64894;SDS011;51588;53.702;10.208;2023-03-11T09:26:40;13.23;;;3.60;;
64894;SDS011;51588;53.702;10.208;2023-03-11T09:29:06;13.47;;;3.80;;
64894;SDS011;51588;53.702;10.208;2023-03-11T09:31:34;9.40;;;3.80;;
64894;SDS011;51588;53.702;10.208;2023-03-11T09:34:02;8.00;;;3.43;;
64894;SDS011;51588;53.702;10.208;2023-03-11T09:36:31;11.30;;;3.70;;
64894;SDS011;51588;53.702;10.208;2023-03-11T09:39:01;5.33;;;3.07;;
64894;SDS011;51588;53.702;10.208;2023-03-11T09:41:33;9.00;;;3.00;;
64894;SDS011;51588;53.702;10.208;2023-03-11T09:44:08;10.77;;;3.50;;
64894;SDS011;51588;53.702;10.208;2023-03-11T09:49:30;7.20;;;2.93;;
64894;SDS011;51588;53.702;10.208;2023-03-11T09:52:00;9.33;;;3.27;;
64894;SDS011;51588;53.702;10.208;2023-03-11T09:54:29;7.20;;;3.00;;
64894;SDS011;51588;53.702;10.208;2023-03-11T09:56:59;8.97;;;3.00;;
64894;SDS011;51588;53.702;10.208;2023-03-11T09:59:31;7.60;;;2.80;;
64894;SDS011;51588;53.702;10.208;2023-03-11T10:01:58;8.20;;;2.90;;
64894;SDS011;51588;53.702;10.208;2023-03-11T10:04:25;6.57;;;2.83;;
64894;SDS011;51588;53.702;10.208;2023-03-11T10:06:59;7.10;;;2.60;;
64894;SDS011;51588;53.702;10.208;2023-03-11T10:09:29;8.67;;;3.07;;
64894;SDS011;51588;53.702;10.208;2023-03-11T10:12:01;8.00;;;2.57;;
64894;SDS011;51588;53.702;10.208;2023-03-11T10:14:43;5.53;;;2.60;;
64894;SDS011;51588;53.702;10.208;2023-03-11T10:17:15;6.07;;;2.53;;
64894;SDS011;51588;53.702;10.208;2023-03-11T10:19:45;6.80;;;2.50;;
64894;SDS011;51588;53.702;10.208;2023-03-11T10:22:16;5.63;;;2.77;;
64894;SDS011;51588;53.702;10.208;2023-03-11T10:24:56;12.73;;;2.60;;
64894;SDS011;51588;53.702;10.208;2023-03-11T10:27:24;6.53;;;3.20;;
64894;SDS011;51588;53.702;10.208;2023-03-11T10:29:55;4.43;;;2.53;;
64894;SDS011;51588;53.702;10.208;2023-03-11T10:32:26;5.40;;;2.90;;
64894;SDS011;51588;53.702;10.208;2023-03-11T10:34:58;4.37;;;2.33;;
64894;SDS011;51588;53.702;10.208;2023-03-11T10:37:30;4.20;;;2.30;;
64894;SDS011;51588;53.702;10.208;2023-03-11T10:39:58;3.87;;;2.47;;
64894;SDS011;51588;53.702;10.208;2023-03-11T10:42:29;6.47;;;2.67;;
64894;SDS011;51588;53.702;10.208;2023-03-11T10:44:58;9.37;;;3.00;;
64894;SDS011;51588;53.702;10.208;2023-03-11T10:47:27;7.57;;;2.90;;
64894;SDS011;51588;53.702;10.208;2023-03-11T10:49:57;6.30;;;3.17;;
64894;SDS011;51588;53.702;10.208;2023-03-11T10:52:23;6.20;;;2.93;;
64894;SDS011;51588;53.702;10.208;2023-03-11T10:54:59;3.90;;;2.60;;
64894;SDS011;51588;53.702;10.208;2023-03-11T10:57:27;4.10;;;2.50;;
64894;SDS011;51588;53.702;10.208;2023-03-11T10:59:58;7.80;;;2.30;;
64894;SDS011;51588;53.702;10.208;2023-03-11T11:02:25;4.93;;;2.50;;
64894;SDS011;51588;53.702;10.208;2023-03-11T11:05:19;4.93;;;2.30;;
64894;SDS011;51588;53.702;10.208;2023-03-11T11:07:49;6.70;;;2.13;;
64894;SDS011;51588;53.702;10.208;2023-03-11T11:10:19;3.30;;;2.10;;
64894;SDS011;51588;53.702;10.208;2023-03-11T11:12:53;4.00;;;2.13;;
64894;SDS011;51588;53.702;10.208;2023-03-11T11:15:20;4.10;;;1.80;;
64894;SDS011;51588;53.702;10.208;2023-03-11T11:17:47;2.47;;;1.63;;
64894;SDS011;51588;53.702;10.208;2023-03-11T11:20:15;7.03;;;1.83;;
64894;SDS011;51588;53.702;10.208;2023-03-11T11:22:46;3.13;;;1.73;;
64894;SDS011;51588;53.702;10.208;2023-03-11T11:25:26;3.37;;;1.90;;
64894;SDS011;51588;53.702;10.208;2023-03-11T11:27:53;3.27;;;1.67;;
64894;SDS011;51588;53.702;10.208;2023-03-11T11:30:20;4.70;;;1.70;;
64894;SDS011;51588;53.702;10.208;2023-03-11T11:32:47;3.00;;;1.87;;
64894;SDS011;51588;53.702;10.208;2023-03-11T11:35:17;3.27;;;1.63;;
64894;SDS011;51588;53.702;10.208;2023-03-11T11:37:45;2.70;;;1.80;;
64894;SDS011;51588;53.702;10.208;2023-03-11T11:40:16;2.50;;;1.80;;
64894;SDS011;51588;53.702;10.208;2023-03-11T11:42:47;2.23;;;1.73;;
64894;SDS011;51588;53.702;10.208;2023-03-11T11:45:17;4.10;;;1.53;;
64894;SDS011;51588;53.702;10.208;2023-03-11T11:47:48;2.70;;;1.80;;
64894;SDS011;51588;53.702;10.208;2023-03-11T11:50:19;4.60;;;1.77;;
64894;SDS011;51588;53.702;10.208;2023-03-11T11:52:51;4.20;;;2.10;;
64894;SDS011;51588;53.702;10.208;2023-03-11T11:55:19;3.30;;;1.73;;
64894;SDS011;51588;53.702;10.208;2023-03-11T11:57:47;5.20;;;1.90;;
64894;SDS011;51588;53.702;10.208;2023-03-11T12:00:18;3.30;;;1.50;;
64894;SDS011;51588;53.702;10.208;2023-03-11T12:02:51;2.50;;;1.60;;
64894;SDS011;51588;53.702;10.208;2023-03-11T12:05:22;1.90;;;1.30;;
64894;SDS011;51588;53.702;10.208;2023-03-11T12:07:56;2.40;;;1.50;;
64894;SDS011;51588;53.702;10.208;2023-03-11T12:10:27;2.37;;;1.77;;
64894;SDS011;51588;53.702;10.208;2023-03-11T12:13:13;2.93;;;1.77;;
64894;SDS011;51588;53.702;10.208;2023-03-11T12:15:45;2.53;;;1.40;;
64894;SDS011;51588;53.702;10.208;2023-03-11T12:18:14;2.00;;;1.60;;
64894;SDS011;51588;53.702;10.208;2023-03-11T12:20:46;2.17;;;1.63;;
64894;SDS011;51588;53.702;10.208;2023-03-11T12:23:17;4.27;;;1.73;;
64894;SDS011;51588;53.702;10.208;2023-03-11T12:26:01;2.23;;;1.57;;
64894;SDS011;51588;53.702;10.208;2023-03-11T12:28:38;1.90;;;1.60;;
64894;SDS011;51588;53.702;10.208;2023-03-11T12:31:06;2.60;;;1.70;;
64894;SDS011;51588;53.702;10.208;2023-03-11T12:33:34;2.63;;;1.47;;
64894;SDS011;51588;53.702;10.208;2023-03-11T12:36:02;3.83;;;1.73;;
64894;SDS011;51588;53.702;10.208;2023-03-11T12:38:30;2.07;;;1.60;;
64894;SDS011;51588;53.702;10.208;2023-03-11T12:40:59;1.97;;;1.60;;
64894;SDS011;51588;53.702;10.208;2023-03-11T12:46:20;2.20;;;1.50;;
64894;SDS011;51588;53.702;10.208;2023-03-11T12:48:47;3.10;;;1.87;;
64894;SDS011;51588;53.702;10.208;2023-03-11T12:54:19;2.30;;;1.40;;
64894;SDS011;51588;53.702;10.208;2023-03-11T12:56:49;2.87;;;1.43;;
64894;SDS011;51588;53.702;10.208;2023-03-11T12:59:31;2.30;;;1.20;;
64894;SDS011;51588;53.702;10.208;2023-03-11T13:02:10;2.50;;;1.20;;
64894;SDS011;51588;53.702;10.208;2023-03-11T13:04:47;1.93;;;1.20;;
64894;SDS011;51588;53.702;10.208;2023-03-11T13:10:20;4.27;;;1.40;;
64894;SDS011;51588;53.702;10.208;2023-03-11T13:12:58;1.70;;;1.33;;
64894;SDS011;51588;53.702;10.208;2023-03-11T13:15:33;1.43;;;1.30;;
64894;SDS011;51588;53.702;10.208;2023-03-11T13:18:12;2.60;;;1.30;;
64894;SDS011;51588;53.702;10.208;2023-03-11T13:20:47;1.50;;;1.40;;
64894;SDS011;51588;53.702;10.208;2023-03-11T13:23:21;2.40;;;1.30;;
64894;SDS011;51588;53.702;10.208;2023-03-11T13:26:00;2.90;;;1.37;;
64894;SDS011;51588;53.702;10.208;2023-03-11T13:28:34;1.93;;;1.10;;
64894;SDS011;51588;53.702;10.208;2023-03-11T13:31:09;1.90;;;1.40;;
64894;SDS011;51588;53.702;10.208;2023-03-11T13:33:46;1.60;;;1.50;;
64894;SDS011;51588;53.702;10.208;2023-03-11T13:36:16;2.50;;;1.10;;
64894;SDS011;51588;53.702;10.208;2023-03-11T13:41:46;2.07;;;1.20;;
64894;SDS011;51588;53.702;10.208;2023-03-11T13:44:15;2.83;;;1.23;;
64894;SDS011;51588;53.702;10.208;2023-03-11T13:46:46;1.37;;;1.27;;
64894;SDS011;51588;53.702;10.208;2023-03-11T13:49:19;1.67;;;1.30;;
64894;SDS011;51588;53.702;10.208;2023-03-11T13:51:48;1.80;;;1.17;;
64894;SDS011;51588;53.702;10.208;2023-03-11T13:57:01;2.90;;;1.23;;
64894;SDS011;51588;53.702;10.208;2023-03-11T13:59:28;2.90;;;1.10;;
64894;SDS011;51588;53.702;10.208;2023-03-11T14:01:56;1.20;;;1.10;;
64894;SDS011;51588;53.702;10.208;2023-03-11T14:04:26;3.90;;;1.20;;
64894;SDS011;51588;53.702;10.208;2023-03-11T14:06:53;1.47;;;1.10;;
64894;SDS011;51588;53.702;10.208;2023-03-11T14:09:20;2.33;;;1.20;;
64894;SDS011;51588;53.702;10.208;2023-03-11T14:11:46;1.87;;;1.07;;
64894;SDS011;51588;53.702;10.208;2023-03-11T14:14:35;1.70;;;1.20;;
64894;SDS011;51588;53.702;10.208;2023-03-11T14:17:05;1.20;;;1.07;;
64894;SDS011;51588;53.702;10.208;2023-03-11T14:19:33;1.20;;;1.10;;
64894;SDS011;51588;53.702;10.208;2023-03-11T14:21:59;1.10;;;1.00;;
64894;SDS011;51588;53.702;10.208;2023-03-11T14:24:27;1.73;;;1.07;;
64894;SDS011;51588;53.702;10.208;2023-03-11T14:26:57;1.97;;;1.30;;
64894;SDS011;51588;53.702;10.208;2023-03-11T14:29:27;1.73;;;1.10;;
64894;SDS011;51588;53.702;10.208;2023-03-11T14:31:55;5.60;;;1.53;;
64894;SDS011;51588;53.702;10.208;2023-03-11T14:34:22;3.10;;;1.07;;
64894;SDS011;51588;53.702;10.208;2023-03-11T14:36:54;3.50;;;1.70;;
64894;SDS011;51588;53.702;10.208;2023-03-11T14:39:22;2.37;;;1.27;;
64894;SDS011;51588;53.702;10.208;2023-03-11T14:41:49;2.43;;;1.13;;
64894;SDS011;51588;53.702;10.208;2023-03-11T14:44:17;2.50;;;1.20;;
64894;SDS011;51588;53.702;10.208;2023-03-11T14:46:46;2.40;;;1.30;;
64894;SDS011;51588;53.702;10.208;2023-03-11T14:49:13;1.20;;;0.93;;
64894;SDS011;51588;53.702;10.208;2023-03-11T14:51:41;1.97;;;1.30;;
64894;SDS011;51588;53.702;10.208;2023-03-11T14:54:14;2.27;;;1.10;;
64894;SDS011;51588;53.702;10.208;2023-03-11T14:56:43;2.77;;;1.07;;
64894;SDS011;51588;53.702;10.208;2023-03-11T14:59:12;1.40;;;1.20;;
64894;SDS011;51588;53.702;10.208;2023-03-11T15:01:40;2.40;;;1.13;;
64894;SDS011;51588;53.702;10.208;2023-03-11T15:04:16;1.20;;;1.00;;